This is the latest recevied weather packets stored in our database for station/object iz1wiy-2. If no packets are shown the sender has not sent any weather packets the latest 10 day(s).
| Time | Temp. | Humidity | Pressure | Rain* | Wind** | Luminosity | Snow |
|---|---|---|---|---|---|---|---|
| 1777691403 | 15.56° C | 47% | 1025.3 hPa | 0 mm | - | - | - |
| 1777691103 | 15° C | 46% | 1025.4 hPa | 0 mm | - | - | - |
| 1777690803 | 15° C | 46% | 1025.4 hPa | 0 mm | - | - | - |
| 1777690503 | 15° C | 45% | 1025.3 hPa | 0 mm | - | - | - |
| 1777690203 | 15.56° C | 44% | 1025.3 hPa | 0 mm | - | - | - |
| 1777689903 | 15° C | 44% | 1025.3 hPa | 0 mm | - | - | - |
| 1777689603 | 15° C | 44% | 1025.3 hPa | 0 mm | - | - | - |
| 1777689303 | 15.56° C | 43% | 1025.2 hPa | 0 mm | - | - | - |
| 1777689003 | 15.56° C | 44% | 1025.3 hPa | 0 mm | - | - | - |
| 1777688703 | 15.56° C | 44% | 1025.3 hPa | 0 mm | - | - | - |
| 1777688104 | 15.56° C | 45% | 1025.4 hPa | 0 mm | - | - | - |
| 1777674304 | 15.56° C | 38% | 1025.3 hPa | 0 mm | - | - | - |
| 1777665604 | 18.89° C | 34% | 1024.1 hPa | 0 mm | - | - | - |
| 1777661104 | 19.44° C | 34% | 1023.5 hPa | 0 mm | - | - | - |
| 1777659303 | 20.56° C | 31% | 1023.1 hPa | 0 mm | - | - | - |
| 1777658104 | 21.11° C | 29% | 1022.9 hPa | 0 mm | - | - | - |
| 1777650003 | 23.89° C | 26% | 1022.6 hPa | 0 mm | - | - | - |
| 1777649703 | 24.44° C | 25% | 1022.6 hPa | 0 mm | - | - | - |
| 1777649404 | 24.44° C | 26% | 1022.6 hPa | 0 mm | - | - | - |
| 1777649103 | 23.89° C | 26% | 1022.6 hPa | 0 mm | - | - | - |
| 1777648803 | 23.89° C | 26% | 1022.6 hPa | 0 mm | - | - | - |
| 1777648503 | 24.44° C | 26% | 1022.6 hPa | 0 mm | - | - | - |
| 1777648203 | 24.44° C | 27% | 1022.8 hPa | 0 mm | - | - | - |
| 1777647903 | 23.89° C | 26% | 1022.8 hPa | 0 mm | - | - | - |
| 1777646404 | 23.33° C | 27% | 1022.9 hPa | 0 mm | - | - | - |
* Rain latest hour (hover to see other rain measurements)
** Current wind speed in m/s (hover to see current wind gust speed)